New Champion — V7GG2 — position and weather

sailwx.info

Track history (hours):
 
Tides and Currents Weather Stations Pressure Air Temp Water Temp Dewpoint Dewpoint Depression Visibility Wind Speed Wind Dir Waves Ship Positions

New Champion

Last reported at 2016-Apr-26 22:29 UTC. Time now 2016-May-31 07:48 UTC.
Position N 02°01' E 102°11'.
Warning: this ship's position is 34 days out of date.

Length 228 m; draft 11.4 m.

Type: Ship (hazmat cat A). MMSI: 537985031.

Date/timePositionNaut miles runAvg speedWind from/ knotsBaromVisibWave heightAir tempDewpointWater temp
2016-Apr-26 22:29N 02°01' E 102°11'1616.7
2016-Apr-26 21:33N 01°53' E 102°24'1717.0
2016-Apr-26 20:33N 01°46' E 102°40'7614.9
2016-Apr-26 15:29N 01°10' E 103°46'1212.8
2016-Apr-26 14:33N 01°15' E 103°57'2 2.1
2016-Apr-26 13:33N 01°17' E 103°58'0 0.0
2016-Apr-26 12:30N 01°17' E 103°58'0 0.0
2016-Apr-26 11:27N 01°17' E 103°58'0 0.1
2016-Apr-26 10:33N 01°17' E 103°58'0 0.1
2016-Apr-26 09:33N 01°17' E 103°58'0 0.2
2016-Apr-26 08:33N 01°17' E 103°58'0 0.0
2016-Apr-26 07:33N 01°17' E 103°58'0 0.0
2016-Apr-26 06:33N 01°17' E 103°58'0 0.0
2016-Apr-26 04:27N 01°17' E 103°58'0 0.1
2016-Apr-26 03:33N 01°17' E 103°58'0 0.0
2016-Apr-26 01:32N 01°17' E 103°58'0 0.0
2016-Apr-26 00:29N 01°17' E 103°58'0 0.0
2016-Apr-25 23:08N 01°17' E 103°58'1 1.3
2016-Apr-25 22:33N 01°17' E 103°59'5 5.2
2016-Apr-25 21:33N 01°16' E 104°04'  
2016-Apr-22 07:14N 20°58' E 110°49'811.7
2016-Apr-22 06:32N 21°02' E 110°41'1111.1
2016-Apr-22 05:33N 21°05' E 110°30'6 6.1
2016-Apr-22 04:33N 21°08' E 110°25'1 0.6
2016-Apr-22 03:30N 21°09' E 110°24'0 0.0
2016-Apr-22 02:33N 21°09' E 110°24'0 0.0
2016-Apr-22 01:33N 21°09' E 110°24'0 0.0
2016-Apr-22 00:33N 21°09' E 110°24'0 0.0
2016-Apr-21 23:33N 21°09' E 110°24'0 0.0
2016-Apr-21 22:30N 21°09' E 110°24'0 0.0
2016-Apr-21 21:33N 21°09' E 110°24'0 0.0
2016-Apr-21 20:33N 21°09' E 110°24'0 0.0
2016-Apr-21 19:33N 21°09' E 110°24'0 0.0
2016-Apr-21 18:30N 21°09' E 110°24'0 0.0
2016-Apr-21 17:33N 21°09' E 110°24'0 0.0
2016-Apr-21 16:30N 21°09' E 110°24'0 0.0
2016-Apr-21 15:33N 21°09' E 110°24'0 0.0
2016-Apr-21 14:33N 21°09' E 110°24'0 0.0
2016-Apr-21 13:27N 21°09' E 110°24'0 0.0
2016-Apr-21 12:33N 21°09' E 110°24'0 0.0
2016-Apr-21 11:27N 21°09' E 110°24'0 0.0
2016-Apr-21 10:33N 21°09' E 110°24'0 0.0
2016-Apr-21 09:33N 21°09' E 110°24'0 0.0
2016-Apr-21 08:33N 21°09' E 110°24'0 0.0
2016-Apr-21 07:33N 21°09' E 110°24'0 0.0
2016-Apr-21 06:33N 21°09' E 110°24'0 0.0
2016-Apr-21 05:27N 21°09' E 110°24'0 0.0
2016-Apr-21 04:30N 21°09' E 110°24'0 0.0
2016-Apr-21 03:33N 21°09' E 110°24'0 0.0
2016-Apr-21 01:33N 21°09' E 110°24'0 0.0
2016-Apr-21 00:27N 21°09' E 110°24'0 0.0
2016-Apr-20 22:33N 21°09' E 110°24'0 0.0
2016-Apr-20 21:15N 21°09' E 110°24'0 0.0
2016-Apr-20 20:33N 21°09' E 110°24'0 0.0
2016-Apr-20 19:27N 21°09' E 110°24'0 0.0
2016-Apr-20 18:33N 21°09' E 110°24'0 0.0
2016-Apr-20 17:33N 21°09' E 110°24'0 0.0
2016-Apr-20 16:33N 21°09' E 110°24'0 0.0
2016-Apr-20 15:24N 21°09' E 110°24'0 0.0
2016-Apr-20 14:33N 21°09' E 110°24'0 0.0
2016-Apr-20 13:33N 21°09' E 110°24'0 0.0
2016-Apr-20 12:33N 21°09' E 110°24'0 0.0
2016-Apr-20 11:21N 21°09' E 110°24'0 0.0
2016-Apr-20 10:30N 21°09' E 110°24'0 0.0
2016-Apr-20 09:33N 21°09' E 110°24'0 0.0
2016-Apr-20 08:33N 21°09' E 110°24'0 0.0
2016-Apr-20 07:21N 21°09' E 110°24'0 0.0
2016-Apr-20 06:27N 21°09' E 110°24'0 0.0
2016-Apr-20 04:30N 21°09' E 110°24'0 0.0
2016-Apr-20 03:18N 21°09' E 110°24'0 0.0
2016-Apr-20 02:33N 21°09' E 110°24'0 0.0
2016-Apr-20 01:27N 21°09' E 110°24'0 0.0
2016-Apr-20 00:27N 21°09' E 110°24'0 0.0
2016-Apr-19 23:30N 21°09' E 110°24'0 0.0
2016-Apr-19 22:33N 21°09' E 110°24'0 0.0
2016-Apr-19 21:27N 21°09' E 110°24'0 0.0
2016-Apr-19 20:33N 21°09' E 110°24'0 0.0
2016-Apr-19 19:33N 21°09' E 110°24'0 0.0
2016-Apr-19 18:33N 21°09' E 110°24'0 0.0
2016-Apr-19 17:30N 21°09' E 110°24'0 0.0
2016-Apr-19 16:33N 21°09' E 110°24'0 0.0
2016-Apr-19 15:33N 21°09' E 110°24'0 0.0
2016-Apr-19 14:33N 21°09' E 110°24'0 0.0
2016-Apr-19 13:09N 21°09' E 110°24'0 0.0
2016-Apr-19 12:30N 21°09' E 110°24'0 0.0
2016-Apr-19 11:27N 21°09' E 110°24'0 0.0
2016-Apr-19 10:33N 21°09' E 110°24'0 0.0
2016-Apr-19 09:30N 21°09' E 110°24'0 0.0
2016-Apr-19 08:21N 21°09' E 110°24'0 0.0
2016-Apr-19 07:33N 21°09' E 110°24'0 0.0
2016-Apr-19 06:33N 21°09' E 110°24'0 0.0
2016-Apr-19 05:27N 21°09' E 110°24'0 0.0
2016-Apr-19 04:33N 21°09' E 110°24'0 0.0
2016-Apr-19 03:33N 21°09' E 110°24'0 0.0
2016-Apr-19 02:33N 21°09' E 110°24'0 0.0
2016-Apr-19 01:24N 21°09' E 110°24'0 0.0
2016-Apr-19 00:33N 21°09' E 110°24'0 0.0
2016-Apr-18 23:33N 21°09' E 110°24'0 0.0
2016-Apr-18 22:30N 21°09' E 110°24'0 0.0
2016-Apr-18 21:33N 21°09' E 110°24'0 0.0
2016-Apr-18 20:30N 21°09' E 110°24'0 0.0
2016-Apr-18 19:15N 21°09' E 110°24'0 0.0
2016-Apr-18 18:27N 21°09' E 110°24'0 0.0
2016-Apr-18 17:33N 21°09' E 110°24'0 0.0
2016-Apr-18 16:33N 21°09' E 110°24'0 0.0
2016-Apr-18 15:33N 21°09' E 110°24'0 0.0
2016-Apr-18 14:30N 21°09' E 110°24'0 0.0
2016-Apr-18 12:27N 21°09' E 110°24'0 0.0
2016-Apr-18 11:30N 21°09' E 110°24'0 0.0
2016-Apr-18 10:33N 21°09' E 110°24'0 0.0
2016-Apr-18 09:27N 21°09' E 110°24'0 0.0
2016-Apr-18 08:30N 21°09' E 110°24'0 0.0
2016-Apr-18 07:33N 21°09' E 110°24'0 0.0
2016-Apr-18 06:27N 21°09' E 110°24'0 0.0
2016-Apr-18 05:33N 21°09' E 110°24'0 0.0
2016-Apr-18 04:18N 21°09' E 110°24'0 0.0
2016-Apr-18 03:27N 21°09' E 110°24'0 0.0
2016-Apr-18 02:33N 21°09' E 110°24'0 0.0
2016-Apr-18 01:33N 21°09' E 110°24'0 0.0
2016-Apr-18 00:30N 21°09' E 110°24'0 0.0
2016-Apr-17 23:33N 21°09' E 110°24'0 0.0
2016-Apr-17 22:27N 21°09' E 110°24'0 0.0
2016-Apr-17 21:27N 21°09' E 110°24'0 0.0
2016-Apr-17 20:33N 21°09' E 110°24'0 0.0
2016-Apr-17 19:27N 21°09' E 110°24'0 0.0
2016-Apr-17 18:33N 21°09' E 110°24'0 0.0
2016-Apr-17 17:27N 21°09' E 110°24'0 0.0
2016-Apr-17 16:33N 21°09' E 110°24'0 0.0
2016-Apr-17 15:33N 21°09' E 110°24'0 0.0
2016-Apr-17 14:27N 21°09' E 110°24'0 0.0
2016-Apr-17 13:33N 21°09' E 110°24'0 0.0
2016-Apr-17 12:33N 21°09' E 110°24'0 0.0
2016-Apr-17 11:33N 21°09' E 110°24'0 0.0
2016-Apr-17 10:21N 21°09' E 110°24'0 0.0
2016-Apr-17 09:27N 21°09' E 110°24'0 0.0
2016-Apr-17 08:15N 21°09' E 110°24'0 0.0
2016-Apr-17 07:33N 21°09' E 110°24'0 0.0
2016-Apr-17 06:33N 21°09' E 110°24'0 0.0
2016-Apr-17 05:27N 21°09' E 110°24'0 0.0
2016-Apr-17 04:33N 21°09' E 110°24'0 0.0
2016-Apr-17 03:27N 21°09' E 110°24'0 0.0
2016-Apr-17 02:27N 21°09' E 110°24'0 0.0
2016-Apr-17 01:33N 21°09' E 110°24'0 0.0
2016-Apr-17 00:33N 21°09' E 110°24'0 0.0
2016-Apr-16 23:33N 21°09' E 110°24'0 0.0
2016-Apr-16 22:33N 21°09' E 110°24'  
Track history (hours):
 
Tides and Currents Weather Stations Pressure Air Temp Water Temp Dewpoint Dewpoint Depression Visibility Wind Speed Wind Dir Waves Ship Positions

New Champion

Last reported at 2016-Apr-26 22:29 UTC. Time now 2016-May-31 07:48 UTC.
Position N 02°01' E 102°11'.
Warning: this ship's position is 34 days out of date.

Length 228 m; draft 11.4 m.

Type: Ship (hazmat cat A). MMSI: 537985031.

Date/timePositionNaut miles runAvg speedWind from/ knotsBaromVisibWave heightAir tempDewpointWater temp
2016-Apr-26 22:29N 02°01' E 102°11'1616.7
2016-Apr-26 21:33N 01°53' E 102°24'1717.0
2016-Apr-26 20:33N 01°46' E 102°40'7614.9
2016-Apr-26 15:29N 01°10' E 103°46'1212.8
2016-Apr-26 14:33N 01°15' E 103°57'2 2.1
2016-Apr-26 13:33N 01°17' E 103°58'0 0.0
2016-Apr-26 12:30N 01°17' E 103°58'0 0.0
2016-Apr-26 11:27N 01°17' E 103°58'0 0.1
2016-Apr-26 10:33N 01°17' E 103°58'0 0.1
2016-Apr-26 09:33N 01°17' E 103°58'0 0.2
2016-Apr-26 08:33N 01°17' E 103°58'0 0.0
2016-Apr-26 07:33N 01°17' E 103°58'0 0.0
2016-Apr-26 06:33N 01°17' E 103°58'0 0.0
2016-Apr-26 04:27N 01°17' E 103°58'0 0.1
2016-Apr-26 03:33N 01°17' E 103°58'0 0.0
2016-Apr-26 01:32N 01°17' E 103°58'0 0.0
2016-Apr-26 00:29N 01°17' E 103°58'0 0.0
2016-Apr-25 23:08N 01°17' E 103°58'1 1.3
2016-Apr-25 22:33N 01°17' E 103°59'5 5.2
2016-Apr-25 21:33N 01°16' E 104°04'  
2016-Apr-22 07:14N 20°58' E 110°49'811.7
2016-Apr-22 06:32N 21°02' E 110°41'1111.1
2016-Apr-22 05:33N 21°05' E 110°30'6 6.1
2016-Apr-22 04:33N 21°08' E 110°25'1 0.6
2016-Apr-22 03:30N 21°09' E 110°24'0 0.0
2016-Apr-22 02:33N 21°09' E 110°24'0 0.0
2016-Apr-22 01:33N 21°09' E 110°24'0 0.0
2016-Apr-22 00:33N 21°09' E 110°24'0 0.0
2016-Apr-21 23:33N 21°09' E 110°24'0 0.0
2016-Apr-21 22:30N 21°09' E 110°24'0 0.0
2016-Apr-21 21:33N 21°09' E 110°24'0 0.0
2016-Apr-21 20:33N 21°09' E 110°24'0 0.0
2016-Apr-21 19:33N 21°09' E 110°24'0 0.0
2016-Apr-21 18:30N 21°09' E 110°24'0 0.0
2016-Apr-21 17:33N 21°09' E 110°24'0 0.0
2016-Apr-21 16:30N 21°09' E 110°24'0 0.0
2016-Apr-21 15:33N 21°09' E 110°24'0 0.0
2016-Apr-21 14:33N 21°09' E 110°24'0 0.0
2016-Apr-21 13:27N 21°09' E 110°24'0 0.0
2016-Apr-21 12:33N 21°09' E 110°24'0 0.0
2016-Apr-21 11:27N 21°09' E 110°24'0 0.0
2016-Apr-21 10:33N 21°09' E 110°24'0 0.0
2016-Apr-21 09:33N 21°09' E 110°24'0 0.0
2016-Apr-21 08:33N 21°09' E 110°24'0 0.0
2016-Apr-21 07:33N 21°09' E 110°24'0 0.0
2016-Apr-21 06:33N 21°09' E 110°24'0 0.0
2016-Apr-21 05:27N 21°09' E 110°24'0 0.0
2016-Apr-21 04:30N 21°09' E 110°24'0 0.0
2016-Apr-21 03:33N 21°09' E 110°24'0 0.0
2016-Apr-21 01:33N 21°09' E 110°24'0 0.0
2016-Apr-21 00:27N 21°09' E 110°24'0 0.0
2016-Apr-20 22:33N 21°09' E 110°24'0 0.0
2016-Apr-20 21:15N 21°09' E 110°24'0 0.0
2016-Apr-20 20:33N 21°09' E 110°24'0 0.0
2016-Apr-20 19:27N 21°09' E 110°24'0 0.0
2016-Apr-20 18:33N 21°09' E 110°24'0 0.0
2016-Apr-20 17:33N 21°09' E 110°24'0 0.0
2016-Apr-20 16:33N 21°09' E 110°24'0 0.0
2016-Apr-20 15:24N 21°09' E 110°24'0 0.0
2016-Apr-20 14:33N 21°09' E 110°24'0 0.0
2016-Apr-20 13:33N 21°09' E 110°24'0 0.0
2016-Apr-20 12:33N 21°09' E 110°24'0 0.0
2016-Apr-20 11:21N 21°09' E 110°24'0 0.0
2016-Apr-20 10:30N 21°09' E 110°24'0 0.0
2016-Apr-20 09:33N 21°09' E 110°24'0 0.0
2016-Apr-20 08:33N 21°09' E 110°24'0 0.0
2016-Apr-20 07:21N 21°09' E 110°24'0 0.0
2016-Apr-20 06:27N 21°09' E 110°24'0 0.0
2016-Apr-20 04:30N 21°09' E 110°24'0 0.0
2016-Apr-20 03:18N 21°09' E 110°24'0 0.0
2016-Apr-20 02:33N 21°09' E 110°24'0 0.0
2016-Apr-20 01:27N 21°09' E 110°24'0 0.0
2016-Apr-20 00:27N 21°09' E 110°24'0 0.0
2016-Apr-19 23:30N 21°09' E 110°24'0 0.0
2016-Apr-19 22:33N 21°09' E 110°24'0 0.0
2016-Apr-19 21:27N 21°09' E 110°24'0 0.0
2016-Apr-19 20:33N 21°09' E 110°24'0 0.0
2016-Apr-19 19:33N 21°09' E 110°24'0 0.0
2016-Apr-19 18:33N 21°09' E 110°24'0 0.0
2016-Apr-19 17:30N 21°09' E 110°24'0 0.0
2016-Apr-19 16:33N 21°09' E 110°24'0 0.0
2016-Apr-19 15:33N 21°09' E 110°24'0 0.0
2016-Apr-19 14:33N 21°09' E 110°24'0 0.0
2016-Apr-19 13:09N 21°09' E 110°24'0 0.0
2016-Apr-19 12:30N 21°09' E 110°24'0 0.0
2016-Apr-19 11:27N 21°09' E 110°24'0 0.0
2016-Apr-19 10:33N 21°09' E 110°24'0 0.0
2016-Apr-19 09:30N 21°09' E 110°24'0 0.0
2016-Apr-19 08:21N 21°09' E 110°24'0 0.0
2016-Apr-19 07:33N 21°09' E 110°24'0 0.0
2016-Apr-19 06:33N 21°09' E 110°24'0 0.0
2016-Apr-19 05:27N 21°09' E 110°24'0 0.0
2016-Apr-19 04:33N 21°09' E 110°24'0 0.0
2016-Apr-19 03:33N 21°09' E 110°24'0 0.0
2016-Apr-19 02:33N 21°09' E 110°24'0 0.0
2016-Apr-19 01:24N 21°09' E 110°24'0 0.0
2016-Apr-19 00:33N 21°09' E 110°24'0 0.0
2016-Apr-18 23:33N 21°09' E 110°24'0 0.0
2016-Apr-18 22:30N 21°09' E 110°24'0 0.0
2016-Apr-18 21:33N 21°09' E 110°24'0 0.0
2016-Apr-18 20:30N 21°09' E 110°24'0 0.0
2016-Apr-18 19:15N 21°09' E 110°24'0 0.0
2016-Apr-18 18:27N 21°09' E 110°24'0 0.0
2016-Apr-18 17:33N 21°09' E 110°24'0 0.0
2016-Apr-18 16:33N 21°09' E 110°24'0 0.0
2016-Apr-18 15:33N 21°09' E 110°24'0 0.0
2016-Apr-18 14:30N 21°09' E 110°24'0 0.0
2016-Apr-18 12:27N 21°09' E 110°24'0 0.0
2016-Apr-18 11:30N 21°09' E 110°24'0 0.0
2016-Apr-18 10:33N 21°09' E 110°24'0 0.0
2016-Apr-18 09:27N 21°09' E 110°24'0 0.0
2016-Apr-18 08:30N 21°09' E 110°24'0 0.0
2016-Apr-18 07:33N 21°09' E 110°24'0 0.0
2016-Apr-18 06:27N 21°09' E 110°24'0 0.0
2016-Apr-18 05:33N 21°09' E 110°24'0 0.0
2016-Apr-18 04:18N 21°09' E 110°24'0 0.0
2016-Apr-18 03:27N 21°09' E 110°24'0 0.0
2016-Apr-18 02:33N 21°09' E 110°24'0 0.0
2016-Apr-18 01:33N 21°09' E 110°24'0 0.0
2016-Apr-18 00:30N 21°09' E 110°24'0 0.0
2016-Apr-17 23:33N 21°09' E 110°24'0 0.0
2016-Apr-17 22:27N 21°09' E 110°24'0 0.0
2016-Apr-17 21:27N 21°09' E 110°24'0 0.0
2016-Apr-17 20:33N 21°09' E 110°24'0 0.0
2016-Apr-17 19:27N 21°09' E 110°24'0 0.0
2016-Apr-17 18:33N 21°09' E 110°24'0 0.0
2016-Apr-17 17:27N 21°09' E 110°24'0 0.0
2016-Apr-17 16:33N 21°09' E 110°24'0 0.0
2016-Apr-17 15:33N 21°09' E 110°24'0 0.0
2016-Apr-17 14:27N 21°09' E 110°24'0 0.0
2016-Apr-17 13:33N 21°09' E 110°24'0 0.0
2016-Apr-17 12:33N 21°09' E 110°24'0 0.0
2016-Apr-17 11:33N 21°09' E 110°24'0 0.0
2016-Apr-17 10:21N 21°09' E 110°24'0 0.0
2016-Apr-17 09:27N 21°09' E 110°24'0 0.0
2016-Apr-17 08:15N 21°09' E 110°24'0 0.0
2016-Apr-17 07:33N 21°09' E 110°24'0 0.0
2016-Apr-17 06:33N 21°09' E 110°24'0 0.0
2016-Apr-17 05:27N 21°09' E 110°24'0 0.0
2016-Apr-17 04:33N 21°09' E 110°24'0 0.0
2016-Apr-17 03:27N 21°09' E 110°24'0 0.0
2016-Apr-17 02:27N 21°09' E 110°24'0 0.0
2016-Apr-17 01:33N 21°09' E 110°24'0 0.0
2016-Apr-17 00:33N 21°09' E 110°24'0 0.0
2016-Apr-16 23:33N 21°09' E 110°24'0 0.0
2016-Apr-16 22:33N 21°09' E 110°24'  

Dump ship's entire track history